sensor_id;sensor_type;location;lat;lon;timestamp;P1;durP1;ratioP1;P2;durP2;ratioP2
11315;SDS011;5713;50.774;0.256;2022-08-03T00:00:13;13.32;;;8.20;;
11315;SDS011;5713;50.774;0.256;2022-08-03T00:02:40;16.23;;;8.85;;
11315;SDS011;5713;50.774;0.256;2022-08-03T00:05:06;15.25;;;8.57;;
11315;SDS011;5713;50.774;0.256;2022-08-03T00:07:33;17.05;;;9.07;;
11315;SDS011;5713;50.774;0.256;2022-08-03T00:09:59;12.23;;;8.25;;
11315;SDS011;5713;50.774;0.256;2022-08-03T00:12:25;13.52;;;7.95;;
11315;SDS011;5713;50.774;0.256;2022-08-03T00:14:51;14.07;;;6.93;;
11315;SDS011;5713;50.774;0.256;2022-08-03T00:17:17;11.63;;;7.20;;
11315;SDS011;5713;50.774;0.256;2022-08-03T00:19:43;10.27;;;7.13;;
11315;SDS011;5713;50.774;0.256;2022-08-03T00:22:10;11.23;;;7.23;;
11315;SDS011;5713;50.774;0.256;2022-08-03T00:24:36;10.00;;;6.63;;
11315;SDS011;5713;50.774;0.256;2022-08-03T00:27:03;13.15;;;6.63;;
11315;SDS011;5713;50.774;0.256;2022-08-03T00:29:29;11.68;;;6.82;;
11315;SDS011;5713;50.774;0.256;2022-08-03T00:31:55;11.38;;;7.07;;
11315;SDS011;5713;50.774;0.256;2022-08-03T00:34:21;13.38;;;6.93;;
11315;SDS011;5713;50.774;0.256;2022-08-03T00:36:47;15.35;;;7.38;;
11315;SDS011;5713;50.774;0.256;2022-08-03T00:39:13;15.93;;;7.50;;
11315;SDS011;5713;50.774;0.256;2022-08-03T00:41:40;14.60;;;7.07;;
11315;SDS011;5713;50.774;0.256;2022-08-03T00:44:06;12.93;;;7.22;;
11315;SDS011;5713;50.774;0.256;2022-08-03T00:46:32;11.18;;;6.97;;
11315;SDS011;5713;50.774;0.256;2022-08-03T00:48:58;12.52;;;7.03;;
11315;SDS011;5713;50.774;0.256;2022-08-03T00:51:24;13.05;;;7.38;;
11315;SDS011;5713;50.774;0.256;2022-08-03T00:53:50;13.07;;;7.05;;
11315;SDS011;5713;50.774;0.256;2022-08-03T00:56:17;12.80;;;7.78;;
11315;SDS011;5713;50.774;0.256;2022-08-03T00:58:43;15.23;;;7.82;;
11315;SDS011;5713;50.774;0.256;2022-08-03T01:01:10;13.40;;;7.50;;
11315;SDS011;5713;50.774;0.256;2022-08-03T01:03:36;13.35;;;7.07;;
11315;SDS011;5713;50.774;0.256;2022-08-03T01:06:15;12.73;;;6.95;;
11315;SDS011;5713;50.774;0.256;2022-08-03T01:08:47;12.45;;;7.00;;
11315;SDS011;5713;50.774;0.256;2022-08-03T01:16:58;14.13;;;6.10;;
11315;SDS011;5713;50.774;0.256;2022-08-03T01:27:18;13.00;;;5.65;;
11315;SDS011;5713;50.774;0.256;2022-08-03T01:35:01;10.25;;;5.60;;
11315;SDS011;5713;50.774;0.256;2022-08-03T01:37:34;11.55;;;5.57;;
11315;SDS011;5713;50.774;0.256;2022-08-03T01:40:02;9.82;;;5.75;;
11315;SDS011;5713;50.774;0.256;2022-08-03T01:42:28;9.67;;;5.23;;
11315;SDS011;5713;50.774;0.256;2022-08-03T01:44:55;12.63;;;5.47;;
11315;SDS011;5713;50.774;0.256;2022-08-03T01:47:22;13.97;;;5.90;;
11315;SDS011;5713;50.774;0.256;2022-08-03T01:49:49;11.65;;;5.60;;
11315;SDS011;5713;50.774;0.256;2022-08-03T01:52:17;12.88;;;5.85;;
11315;SDS011;5713;50.774;0.256;2022-08-03T01:54:44;12.40;;;5.63;;
11315;SDS011;5713;50.774;0.256;2022-08-03T01:57:11;13.65;;;5.32;;
11315;SDS011;5713;50.774;0.256;2022-08-03T01:59:38;12.40;;;5.40;;
11315;SDS011;5713;50.774;0.256;2022-08-03T02:02:05;12.50;;;5.30;;
11315;SDS011;5713;50.774;0.256;2022-08-03T02:04:32;10.77;;;5.10;;
11315;SDS011;5713;50.774;0.256;2022-08-03T02:06:59;13.95;;;5.00;;
11315;SDS011;5713;50.774;0.256;2022-08-03T02:09:26;13.75;;;5.30;;
11315;SDS011;5713;50.774;0.256;2022-08-03T02:11:53;12.55;;;4.97;;
11315;SDS011;5713;50.774;0.256;2022-08-03T02:14:20;13.60;;;4.90;;
11315;SDS011;5713;50.774;0.256;2022-08-03T02:16:48;11.65;;;4.90;;
11315;SDS011;5713;50.774;0.256;2022-08-03T02:19:14;12.80;;;4.80;;
11315;SDS011;5713;50.774;0.256;2022-08-03T02:21:41;13.20;;;4.95;;
11315;SDS011;5713;50.774;0.256;2022-08-03T02:24:08;11.30;;;4.82;;
11315;SDS011;5713;50.774;0.256;2022-08-03T02:26:35;10.32;;;4.13;;
11315;SDS011;5713;50.774;0.256;2022-08-03T02:29:04;10.55;;;4.57;;
11315;SDS011;5713;50.774;0.256;2022-08-03T02:31:32;13.70;;;4.60;;
11315;SDS011;5713;50.774;0.256;2022-08-03T02:34:00;12.23;;;4.87;;
11315;SDS011;5713;50.774;0.256;2022-08-03T02:36:28;9.93;;;4.10;;
11315;SDS011;5713;50.774;0.256;2022-08-03T02:38:56;9.30;;;3.80;;
11315;SDS011;5713;50.774;0.256;2022-08-03T02:41:26;13.90;;;4.50;;
11315;SDS011;5713;50.774;0.256;2022-08-03T02:43:53;12.93;;;4.63;;
11315;SDS011;5713;50.774;0.256;2022-08-03T02:46:21;11.98;;;4.80;;
11315;SDS011;5713;50.774;0.256;2022-08-03T02:48:48;10.35;;;4.13;;
11315;SDS011;5713;50.774;0.256;2022-08-03T02:51:15;11.20;;;4.30;;
11315;SDS011;5713;50.774;0.256;2022-08-03T02:53:44;11.93;;;4.38;;
11315;SDS011;5713;50.774;0.256;2022-08-03T02:56:10;9.48;;;4.20;;
11315;SDS011;5713;50.774;0.256;2022-08-03T02:58:38;10.38;;;4.40;;
11315;SDS011;5713;50.774;0.256;2022-08-03T03:01:05;11.15;;;4.03;;
11315;SDS011;5713;50.774;0.256;2022-08-03T03:03:32;10.30;;;4.00;;
11315;SDS011;5713;50.774;0.256;2022-08-03T03:05:58;11.37;;;4.13;;
11315;SDS011;5713;50.774;0.256;2022-08-03T03:08:24;13.02;;;4.18;;
11315;SDS011;5713;50.774;0.256;2022-08-03T03:10:51;11.37;;;4.00;;
11315;SDS011;5713;50.774;0.256;2022-08-03T03:13:17;13.70;;;4.50;;
11315;SDS011;5713;50.774;0.256;2022-08-03T03:15:44;11.05;;;4.40;;
11315;SDS011;5713;50.774;0.256;2022-08-03T03:18:12;12.95;;;4.55;;
11315;SDS011;5713;50.774;0.256;2022-08-03T03:20:39;12.18;;;4.18;;
11315;SDS011;5713;50.774;0.256;2022-08-03T03:23:06;10.57;;;4.03;;
11315;SDS011;5713;50.774;0.256;2022-08-03T03:25:33;12.68;;;4.38;;
11315;SDS011;5713;50.774;0.256;2022-08-03T03:28:00;10.32;;;4.00;;
11315;SDS011;5713;50.774;0.256;2022-08-03T03:30:26;11.05;;;4.15;;
11315;SDS011;5713;50.774;0.256;2022-08-03T03:32:54;14.47;;;4.43;;
11315;SDS011;5713;50.774;0.256;2022-08-03T03:35:20;12.75;;;4.38;;
11315;SDS011;5713;50.774;0.256;2022-08-03T03:37:46;12.97;;;4.77;;
11315;SDS011;5713;50.774;0.256;2022-08-03T03:40:13;10.00;;;4.35;;
11315;SDS011;5713;50.774;0.256;2022-08-03T03:42:39;12.02;;;4.40;;
11315;SDS011;5713;50.774;0.256;2022-08-03T03:45:05;10.15;;;4.32;;
11315;SDS011;5713;50.774;0.256;2022-08-03T03:47:35;10.88;;;4.53;;
11315;SDS011;5713;50.774;0.256;2022-08-03T03:50:05;14.38;;;4.45;;
11315;SDS011;5713;50.774;0.256;2022-08-03T03:52:31;13.93;;;4.45;;
11315;SDS011;5713;50.774;0.256;2022-08-03T03:54:57;11.60;;;4.50;;
11315;SDS011;5713;50.774;0.256;2022-08-03T03:57:23;12.23;;;4.20;;
11315;SDS011;5713;50.774;0.256;2022-08-03T03:59:50;10.85;;;4.20;;
11315;SDS011;5713;50.774;0.256;2022-08-03T04:02:16;12.27;;;4.43;;
11315;SDS011;5713;50.774;0.256;2022-08-03T04:04:42;12.43;;;4.30;;
11315;SDS011;5713;50.774;0.256;2022-08-03T04:07:27;10.55;;;4.20;;
11315;SDS011;5713;50.774;0.256;2022-08-03T04:10:16;12.18;;;4.55;;
11315;SDS011;5713;50.774;0.256;2022-08-03T04:13:03;10.93;;;3.80;;
11315;SDS011;5713;50.774;0.256;2022-08-03T04:15:31;11.52;;;4.55;;
11315;SDS011;5713;50.774;0.256;2022-08-03T04:17:58;11.52;;;3.92;;
11315;SDS011;5713;50.774;0.256;2022-08-03T04:20:27;10.27;;;4.30;;
11315;SDS011;5713;50.774;0.256;2022-08-03T04:22:54;11.88;;;4.15;;
11315;SDS011;5713;50.774;0.256;2022-08-03T04:25:22;11.67;;;4.67;;
11315;SDS011;5713;50.774;0.256;2022-08-03T04:27:49;11.32;;;4.50;;
11315;SDS011;5713;50.774;0.256;2022-08-03T04:30:20;10.90;;;4.30;;
11315;SDS011;5713;50.774;0.256;2022-08-03T04:32:47;14.40;;;4.45;;
11315;SDS011;5713;50.774;0.256;2022-08-03T04:35:16;11.88;;;4.35;;
11315;SDS011;5713;50.774;0.256;2022-08-03T04:37:44;11.48;;;4.30;;
11315;SDS011;5713;50.774;0.256;2022-08-03T04:40:19;12.70;;;4.60;;
11315;SDS011;5713;50.774;0.256;2022-08-03T04:42:45;11.38;;;4.38;;
11315;SDS011;5713;50.774;0.256;2022-08-03T04:45:14;14.45;;;4.63;;
11315;SDS011;5713;50.774;0.256;2022-08-03T04:47:40;15.07;;;4.78;;
11315;SDS011;5713;50.774;0.256;2022-08-03T04:50:09;12.63;;;4.35;;
11315;SDS011;5713;50.774;0.256;2022-08-03T04:52:36;11.63;;;4.55;;
11315;SDS011;5713;50.774;0.256;2022-08-03T04:55:03;12.55;;;4.50;;
11315;SDS011;5713;50.774;0.256;2022-08-03T04:57:29;13.50;;;4.95;;
11315;SDS011;5713;50.774;0.256;2022-08-03T04:59:55;11.90;;;4.68;;
11315;SDS011;5713;50.774;0.256;2022-08-03T05:02:22;11.85;;;4.15;;
11315;SDS011;5713;50.774;0.256;2022-08-03T05:04:48;10.55;;;4.13;;
11315;SDS011;5713;50.774;0.256;2022-08-03T05:07:15;13.23;;;4.50;;
11315;SDS011;5713;50.774;0.256;2022-08-03T05:09:42;10.25;;;4.43;;
11315;SDS011;5713;50.774;0.256;2022-08-03T05:12:08;11.75;;;4.55;;
11315;SDS011;5713;50.774;0.256;2022-08-03T05:14:35;10.65;;;4.20;;
11315;SDS011;5713;50.774;0.256;2022-08-03T05:17:06;13.77;;;4.72;;
11315;SDS011;5713;50.774;0.256;2022-08-03T05:19:32;16.63;;;5.03;;
11315;SDS011;5713;50.774;0.256;2022-08-03T05:21:58;13.93;;;4.40;;
11315;SDS011;5713;50.774;0.256;2022-08-03T05:24:24;13.35;;;4.53;;
11315;SDS011;5713;50.774;0.256;2022-08-03T05:26:51;13.73;;;4.55;;
11315;SDS011;5713;50.774;0.256;2022-08-03T05:29:17;13.13;;;4.90;;
11315;SDS011;5713;50.774;0.256;2022-08-03T05:31:43;13.93;;;4.50;;
11315;SDS011;5713;50.774;0.256;2022-08-03T05:34:10;12.33;;;4.60;;
11315;SDS011;5713;50.774;0.256;2022-08-03T05:36:36;11.55;;;4.07;;
11315;SDS011;5713;50.774;0.256;2022-08-03T05:39:02;11.57;;;4.60;;
11315;SDS011;5713;50.774;0.256;2022-08-03T05:41:28;10.97;;;4.70;;
11315;SDS011;5713;50.774;0.256;2022-08-03T05:43:54;13.32;;;4.93;;
11315;SDS011;5713;50.774;0.256;2022-08-03T05:46:21;13.57;;;4.80;;
11315;SDS011;5713;50.774;0.256;2022-08-03T05:48:47;11.03;;;4.67;;
11315;SDS011;5713;50.774;0.256;2022-08-03T05:51:13;11.45;;;5.13;;
11315;SDS011;5713;50.774;0.256;2022-08-03T05:53:40;14.95;;;5.32;;
11315;SDS011;5713;50.774;0.256;2022-08-03T05:56:06;15.38;;;5.22;;
11315;SDS011;5713;50.774;0.256;2022-08-03T05:58:32;13.60;;;5.50;;
11315;SDS011;5713;50.774;0.256;2022-08-03T06:00:58;11.70;;;5.43;;
11315;SDS011;5713;50.774;0.256;2022-08-03T06:03:25;11.63;;;5.40;;
11315;SDS011;5713;50.774;0.256;2022-08-03T06:05:52;13.38;;;5.53;;
11315;SDS011;5713;50.774;0.256;2022-08-03T06:08:18;10.85;;;5.50;;
11315;SDS011;5713;50.774;0.256;2022-08-03T06:10:44;14.05;;;5.70;;
11315;SDS011;5713;50.774;0.256;2022-08-03T06:13:11;13.20;;;5.50;;
11315;SDS011;5713;50.774;0.256;2022-08-03T06:15:37;15.52;;;5.95;;
11315;SDS011;5713;50.774;0.256;2022-08-03T06:18:03;14.27;;;5.68;;
11315;SDS011;5713;50.774;0.256;2022-08-03T06:20:29;14.38;;;5.30;;
11315;SDS011;5713;50.774;0.256;2022-08-03T06:22:55;13.63;;;5.00;;
11315;SDS011;5713;50.774;0.256;2022-08-03T06:25:22;12.57;;;4.83;;
11315;SDS011;5713;50.774;0.256;2022-08-03T06:27:49;12.02;;;4.60;;
11315;SDS011;5713;50.774;0.256;2022-08-03T06:30:16;13.45;;;5.28;;
11315;SDS011;5713;50.774;0.256;2022-08-03T06:32:43;12.40;;;4.25;;
11315;SDS011;5713;50.774;0.256;2022-08-03T06:35:09;12.43;;;4.28;;
11315;SDS011;5713;50.774;0.256;2022-08-03T06:37:45;12.00;;;4.30;;
11315;SDS011;5713;50.774;0.256;2022-08-03T06:40:12;11.52;;;4.30;;
11315;SDS011;5713;50.774;0.256;2022-08-03T06:42:39;13.20;;;4.53;;
11315;SDS011;5713;50.774;0.256;2022-08-03T06:45:05;14.00;;;4.40;;
11315;SDS011;5713;50.774;0.256;2022-08-03T06:47:33;11.33;;;4.03;;
11315;SDS011;5713;50.774;0.256;2022-08-03T06:49:59;11.70;;;3.90;;
11315;SDS011;5713;50.774;0.256;2022-08-03T06:52:25;13.85;;;4.35;;
11315;SDS011;5713;50.774;0.256;2022-08-03T06:54:51;11.77;;;4.43;;
11315;SDS011;5713;50.774;0.256;2022-08-03T06:57:17;10.02;;;4.35;;
11315;SDS011;5713;50.774;0.256;2022-08-03T06:59:44;12.18;;;4.70;;
11315;SDS011;5713;50.774;0.256;2022-08-03T07:02:10;9.95;;;4.50;;
11315;SDS011;5713;50.774;0.256;2022-08-03T07:04:36;13.10;;;4.50;;
11315;SDS011;5713;50.774;0.256;2022-08-03T07:07:02;12.90;;;4.57;;
11315;SDS011;5713;50.774;0.256;2022-08-03T07:09:28;12.18;;;4.55;;
11315;SDS011;5713;50.774;0.256;2022-08-03T07:11:55;12.82;;;4.80;;
11315;SDS011;5713;50.774;0.256;2022-08-03T07:14:21;13.48;;;4.80;;
11315;SDS011;5713;50.774;0.256;2022-08-03T07:16:47;14.43;;;4.78;;
11315;SDS011;5713;50.774;0.256;2022-08-03T07:19:13;13.40;;;5.00;;
11315;SDS011;5713;50.774;0.256;2022-08-03T07:21:39;12.45;;;5.00;;
11315;SDS011;5713;50.774;0.256;2022-08-03T07:24:05;14.23;;;5.00;;
11315;SDS011;5713;50.774;0.256;2022-08-03T07:26:32;12.03;;;4.87;;
11315;SDS011;5713;50.774;0.256;2022-08-03T07:28:58;12.02;;;4.82;;
11315;SDS011;5713;50.774;0.256;2022-08-03T07:31:25;14.75;;;4.80;;
11315;SDS011;5713;50.774;0.256;2022-08-03T07:33:51;12.80;;;4.80;;
11315;SDS011;5713;50.774;0.256;2022-08-03T07:36:18;12.70;;;4.95;;
11315;SDS011;5713;50.774;0.256;2022-08-03T07:38:44;14.27;;;5.10;;
11315;SDS011;5713;50.774;0.256;2022-08-03T07:41:10;9.97;;;4.57;;
11315;SDS011;5713;50.774;0.256;2022-08-03T07:43:37;11.32;;;5.07;;
11315;SDS011;5713;50.774;0.256;2022-08-03T07:46:03;13.00;;;4.53;;
11315;SDS011;5713;50.774;0.256;2022-08-03T07:48:29;13.27;;;4.13;;
11315;SDS011;5713;50.774;0.256;2022-08-03T07:50:55;12.07;;;4.07;;
11315;SDS011;5713;50.774;0.256;2022-08-03T07:53:21;10.30;;;3.90;;
11315;SDS011;5713;50.774;0.256;2022-08-03T07:55:48;10.38;;;3.90;;
11315;SDS011;5713;50.774;0.256;2022-08-03T07:58:14;8.82;;;3.67;;
11315;SDS011;5713;50.774;0.256;2022-08-03T08:00:41;11.23;;;3.80;;
11315;SDS011;5713;50.774;0.256;2022-08-03T08:03:08;13.07;;;4.00;;
11315;SDS011;5713;50.774;0.256;2022-08-03T08:05:35;11.52;;;4.10;;
11315;SDS011;5713;50.774;0.256;2022-08-03T08:08:01;15.30;;;4.25;;
11315;SDS011;5713;50.774;0.256;2022-08-03T08:10:28;10.88;;;3.80;;
11315;SDS011;5713;50.774;0.256;2022-08-03T08:12:54;10.77;;;4.00;;
11315;SDS011;5713;50.774;0.256;2022-08-03T08:15:23;11.27;;;4.30;;
11315;SDS011;5713;50.774;0.256;2022-08-03T08:17:51;12.43;;;4.15;;
11315;SDS011;5713;50.774;0.256;2022-08-03T08:20:21;12.32;;;4.57;;
11315;SDS011;5713;50.774;0.256;2022-08-03T08:22:48;11.05;;;4.05;;
11315;SDS011;5713;50.774;0.256;2022-08-03T08:25:14;12.33;;;4.07;;
11315;SDS011;5713;50.774;0.256;2022-08-03T08:27:41;9.40;;;3.63;;
11315;SDS011;5713;50.774;0.256;2022-08-03T08:30:08;11.50;;;3.95;;
11315;SDS011;5713;50.774;0.256;2022-08-03T08:32:34;11.32;;;3.95;;
11315;SDS011;5713;50.774;0.256;2022-08-03T08:35:01;11.25;;;4.00;;
11315;SDS011;5713;50.774;0.256;2022-08-03T08:37:28;11.48;;;4.30;;
11315;SDS011;5713;50.774;0.256;2022-08-03T08:39:57;10.98;;;3.83;;
11315;SDS011;5713;50.774;0.256;2022-08-03T08:42:24;9.95;;;3.80;;
11315;SDS011;5713;50.774;0.256;2022-08-03T08:44:50;11.18;;;3.65;;
11315;SDS011;5713;50.774;0.256;2022-08-03T08:47:20;10.43;;;4.03;;
11315;SDS011;5713;50.774;0.256;2022-08-03T08:49:51;11.70;;;4.10;;
11315;SDS011;5713;50.774;0.256;2022-08-03T08:52:19;9.85;;;3.78;;
11315;SDS011;5713;50.774;0.256;2022-08-03T08:54:48;9.18;;;3.67;;
11315;SDS011;5713;50.774;0.256;2022-08-03T08:57:14;8.95;;;3.75;;
11315;SDS011;5713;50.774;0.256;2022-08-03T08:59:40;12.35;;;3.90;;
11315;SDS011;5713;50.774;0.256;2022-08-03T09:02:08;10.23;;;4.20;;
11315;SDS011;5713;50.774;0.256;2022-08-03T09:04:34;9.53;;;3.97;;
11315;SDS011;5713;50.774;0.256;2022-08-03T09:07:03;11.90;;;4.13;;
11315;SDS011;5713;50.774;0.256;2022-08-03T09:09:30;8.95;;;3.78;;
11315;SDS011;5713;50.774;0.256;2022-08-03T09:11:56;11.52;;;3.90;;
11315;SDS011;5713;50.774;0.256;2022-08-03T09:14:22;12.45;;;4.18;;
11315;SDS011;5713;50.774;0.256;2022-08-03T09:16:56;13.10;;;4.05;;
11315;SDS011;5713;50.774;0.256;2022-08-03T09:19:29;10.52;;;4.03;;
11315;SDS011;5713;50.774;0.256;2022-08-03T09:22:08;11.07;;;4.03;;
11315;SDS011;5713;50.774;0.256;2022-08-03T09:24:35;13.00;;;4.10;;
11315;SDS011;5713;50.774;0.256;2022-08-03T09:27:04;10.17;;;3.97;;
11315;SDS011;5713;50.774;0.256;2022-08-03T09:29:31;10.88;;;3.92;;
11315;SDS011;5713;50.774;0.256;2022-08-03T09:31:59;11.18;;;4.07;;
11315;SDS011;5713;50.774;0.256;2022-08-03T09:34:25;12.65;;;3.97;;
11315;SDS011;5713;50.774;0.256;2022-08-03T09:36:55;7.95;;;3.53;;
11315;SDS011;5713;50.774;0.256;2022-08-03T09:39:25;11.05;;;4.18;;
11315;SDS011;5713;50.774;0.256;2022-08-03T09:44:35;9.90;;;3.75;;
11315;SDS011;5713;50.774;0.256;2022-08-03T09:47:02;13.95;;;4.05;;
11315;SDS011;5713;50.774;0.256;2022-08-03T09:49:30;12.07;;;4.10;;
11315;SDS011;5713;50.774;0.256;2022-08-03T09:51:57;11.32;;;4.10;;
11315;SDS011;5713;50.774;0.256;2022-08-03T09:54:26;8.80;;;3.80;;
11315;SDS011;5713;50.774;0.256;2022-08-03T09:56:52;16.33;;;4.25;;
11315;SDS011;5713;50.774;0.256;2022-08-03T09:59:26;17.65;;;4.85;;
11315;SDS011;5713;50.774;0.256;2022-08-03T10:01:53;23.30;;;4.90;;
11315;SDS011;5713;50.774;0.256;2022-08-03T10:04:22;16.95;;;4.75;;
11315;SDS011;5713;50.774;0.256;2022-08-03T10:07:04;16.77;;;4.90;;
11315;SDS011;5713;50.774;0.256;2022-08-03T10:09:31;12.95;;;4.60;;
11315;SDS011;5713;50.774;0.256;2022-08-03T10:11:57;18.63;;;4.78;;
11315;SDS011;5713;50.774;0.256;2022-08-03T10:14:31;15.82;;;4.57;;
11315;SDS011;5713;50.774;0.256;2022-08-03T10:16:58;16.20;;;4.55;;
11315;SDS011;5713;50.774;0.256;2022-08-03T10:19:24;16.05;;;4.53;;
11315;SDS011;5713;50.774;0.256;2022-08-03T10:22:00;9.75;;;3.50;;
11315;SDS011;5713;50.774;0.256;2022-08-03T10:24:28;11.10;;;3.92;;
11315;SDS011;5713;50.774;0.256;2022-08-03T10:27:02;10.05;;;3.65;;
11315;SDS011;5713;50.774;0.256;2022-08-03T10:29:30;10.93;;;3.88;;
11315;SDS011;5713;50.774;0.256;2022-08-03T10:31:58;9.15;;;3.60;;
11315;SDS011;5713;50.774;0.256;2022-08-03T10:34:32;14.57;;;4.40;;
11315;SDS011;5713;50.774;0.256;2022-08-03T10:36:59;11.83;;;4.17;;
11315;SDS011;5713;50.774;0.256;2022-08-03T10:39:27;13.27;;;4.10;;
11315;SDS011;5713;50.774;0.256;2022-08-03T10:41:53;12.52;;;3.92;;
11315;SDS011;5713;50.774;0.256;2022-08-03T10:44:22;11.07;;;4.00;;
11315;SDS011;5713;50.774;0.256;2022-08-03T10:46:49;10.07;;;4.00;;
11315;SDS011;5713;50.774;0.256;2022-08-03T10:49:18;12.27;;;4.30;;
11315;SDS011;5713;50.774;0.256;2022-08-03T10:51:45;15.15;;;4.65;;
11315;SDS011;5713;50.774;0.256;2022-08-03T10:56:56;12.57;;;4.10;;
11315;SDS011;5713;50.774;0.256;2022-08-03T11:02:10;12.38;;;4.20;;
11315;SDS011;5713;50.774;0.256;2022-08-03T11:04:38;10.98;;;3.90;;
11315;SDS011;5713;50.774;0.256;2022-08-03T11:07:25;9.67;;;3.67;;
11315;SDS011;5713;50.774;0.256;2022-08-03T11:09:54;11.65;;;3.83;;
11315;SDS011;5713;50.774;0.256;2022-08-03T11:12:30;12.52;;;3.70;;
11315;SDS011;5713;50.774;0.256;2022-08-03T11:15:01;10.20;;;3.80;;
11315;SDS011;5713;50.774;0.256;2022-08-03T11:17:28;12.18;;;4.00;;
11315;SDS011;5713;50.774;0.256;2022-08-03T11:19:55;12.35;;;4.30;;
11315;SDS011;5713;50.774;0.256;2022-08-03T11:22:21;10.63;;;4.10;;
11315;SDS011;5713;50.774;0.256;2022-08-03T11:27:22;9.07;;;3.60;;
11315;SDS011;5713;50.774;0.256;2022-08-03T11:30:04;9.82;;;4.00;;
11315;SDS011;5713;50.774;0.256;2022-08-03T11:32:52;8.52;;;3.55;;
11315;SDS011;5713;50.774;0.256;2022-08-03T11:35:19;10.48;;;3.92;;
11315;SDS011;5713;50.774;0.256;2022-08-03T11:42:59;9.75;;;4.00;;
11315;SDS011;5713;50.774;0.256;2022-08-03T11:45:25;8.57;;;3.85;;
11315;SDS011;5713;50.774;0.256;2022-08-03T11:47:52;11.43;;;3.95;;
11315;SDS011;5713;50.774;0.256;2022-08-03T11:50:19;8.85;;;3.70;;
11315;SDS011;5713;50.774;0.256;2022-08-03T11:52:45;11.85;;;3.80;;
11315;SDS011;5713;50.774;0.256;2022-08-03T11:55:14;13.90;;;4.47;;
11315;SDS011;5713;50.774;0.256;2022-08-03T11:57:41;10.20;;;4.05;;
11315;SDS011;5713;50.774;0.256;2022-08-03T12:05:20;11.10;;;4.10;;
11315;SDS011;5713;50.774;0.256;2022-08-03T12:07:46;8.55;;;4.05;;
11315;SDS011;5713;50.774;0.256;2022-08-03T12:10:13;10.45;;;3.95;;
11315;SDS011;5713;50.774;0.256;2022-08-03T12:12:40;9.77;;;3.63;;
11315;SDS011;5713;50.774;0.256;2022-08-03T12:15:07;8.98;;;3.47;;
11315;SDS011;5713;50.774;0.256;2022-08-03T12:17:34;7.35;;;3.33;;
11315;SDS011;5713;50.774;0.256;2022-08-03T12:20:00;10.23;;;3.78;;
11315;SDS011;5713;50.774;0.256;2022-08-03T12:22:33;10.25;;;4.00;;
11315;SDS011;5713;50.774;0.256;2022-08-03T12:25:01;8.57;;;3.72;;
11315;SDS011;5713;50.774;0.256;2022-08-03T12:27:27;9.55;;;4.07;;
11315;SDS011;5713;50.774;0.256;2022-08-03T12:29:54;11.68;;;4.10;;
11315;SDS011;5713;50.774;0.256;2022-08-03T12:32:21;11.88;;;4.30;;
11315;SDS011;5713;50.774;0.256;2022-08-03T12:34:48;13.23;;;4.32;;
11315;SDS011;5713;50.774;0.256;2022-08-03T12:37:18;9.60;;;3.83;;
11315;SDS011;5713;50.774;0.256;2022-08-03T12:40:03;6.93;;;3.20;;
11315;SDS011;5713;50.774;0.256;2022-08-03T12:42:34;5.40;;;2.47;;
11315;SDS011;5713;50.774;0.256;2022-08-03T12:47:52;5.95;;;3.13;;
11315;SDS011;5713;50.774;0.256;2022-08-03T12:50:32;8.05;;;3.60;;
11315;SDS011;5713;50.774;0.256;2022-08-03T12:52:59;11.80;;;4.10;;
11315;SDS011;5713;50.774;0.256;2022-08-03T12:55:26;8.02;;;3.80;;
11315;SDS011;5713;50.774;0.256;2022-08-03T12:58:01;8.43;;;3.33;;
11315;SDS011;5713;50.774;0.256;2022-08-03T13:00:27;5.28;;;3.38;;
11315;SDS011;5713;50.774;0.256;2022-08-03T13:02:58;7.43;;;3.40;;
11315;SDS011;5713;50.774;0.256;2022-08-03T13:05:25;5.40;;;3.00;;
11315;SDS011;5713;50.774;0.256;2022-08-03T13:07:51;6.18;;;3.20;;
11315;SDS011;5713;50.774;0.256;2022-08-03T13:10:30;7.65;;;3.40;;
11315;SDS011;5713;50.774;0.256;2022-08-03T13:12:57;9.90;;;4.00;;
11315;SDS011;5713;50.774;0.256;2022-08-03T13:15:27;9.50;;;3.90;;
11315;SDS011;5713;50.774;0.256;2022-08-03T13:17:57;9.73;;;4.10;;
11315;SDS011;5713;50.774;0.256;2022-08-03T13:20:23;7.63;;;3.75;;
11315;SDS011;5713;50.774;0.256;2022-08-03T13:22:49;10.23;;;4.18;;
11315;SDS011;5713;50.774;0.256;2022-08-03T13:25:16;10.90;;;4.07;;
11315;SDS011;5713;50.774;0.256;2022-08-03T13:27:42;7.63;;;3.70;;
11315;SDS011;5713;50.774;0.256;2022-08-03T13:30:08;8.48;;;4.00;;
11315;SDS011;5713;50.774;0.256;2022-08-03T13:32:35;8.07;;;3.70;;
11315;SDS011;5713;50.774;0.256;2022-08-03T13:35:01;8.45;;;4.40;;
11315;SDS011;5713;50.774;0.256;2022-08-03T13:37:28;8.55;;;3.53;;
11315;SDS011;5713;50.774;0.256;2022-08-03T13:39:56;7.60;;;3.35;;
11315;SDS011;5713;50.774;0.256;2022-08-03T13:42:22;8.35;;;3.70;;
11315;SDS011;5713;50.774;0.256;2022-08-03T13:44:48;9.02;;;4.10;;
11315;SDS011;5713;50.774;0.256;2022-08-03T13:47:14;6.75;;;3.47;;
11315;SDS011;5713;50.774;0.256;2022-08-03T13:49:40;7.80;;;3.53;;
11315;SDS011;5713;50.774;0.256;2022-08-03T13:52:07;7.97;;;3.80;;
11315;SDS011;5713;50.774;0.256;2022-08-03T13:54:33;6.32;;;3.60;;
11315;SDS011;5713;50.774;0.256;2022-08-03T13:56:59;7.07;;;3.80;;
11315;SDS011;5713;50.774;0.256;2022-08-03T13:59:26;7.70;;;3.90;;
11315;SDS011;5713;50.774;0.256;2022-08-03T14:01:52;7.60;;;3.40;;
11315;SDS011;5713;50.774;0.256;2022-08-03T14:04:19;7.68;;;3.38;;
11315;SDS011;5713;50.774;0.256;2022-08-03T14:06:45;5.68;;;3.40;;
11315;SDS011;5713;50.774;0.256;2022-08-03T14:09:11;8.30;;;3.67;;
11315;SDS011;5713;50.774;0.256;2022-08-03T14:11:41;10.32;;;3.92;;
11315;SDS011;5713;50.774;0.256;2022-08-03T14:14:08;9.20;;;3.92;;
11315;SDS011;5713;50.774;0.256;2022-08-03T14:16:35;10.27;;;3.97;;
11315;SDS011;5713;50.774;0.256;2022-08-03T14:19:01;9.43;;;3.93;;
11315;SDS011;5713;50.774;0.256;2022-08-03T14:21:27;7.67;;;3.30;;
11315;SDS011;5713;50.774;0.256;2022-08-03T14:23:53;7.65;;;3.08;;
11315;SDS011;5713;50.774;0.256;2022-08-03T14:26:21;5.43;;;3.13;;
11315;SDS011;5713;50.774;0.256;2022-08-03T14:28:47;5.47;;;2.83;;
11315;SDS011;5713;50.774;0.256;2022-08-03T14:31:13;4.45;;;3.10;;
11315;SDS011;5713;50.774;0.256;2022-08-03T14:33:39;5.32;;;3.25;;
11315;SDS011;5713;50.774;0.256;2022-08-03T14:36:05;7.45;;;3.30;;
11315;SDS011;5713;50.774;0.256;2022-08-03T14:38:32;8.47;;;3.73;;
11315;SDS011;5713;50.774;0.256;2022-08-03T14:40:58;6.85;;;3.83;;
11315;SDS011;5713;50.774;0.256;2022-08-03T14:43:24;8.57;;;3.70;;
11315;SDS011;5713;50.774;0.256;2022-08-03T14:45:51;6.20;;;3.37;;
11315;SDS011;5713;50.774;0.256;2022-08-03T14:48:18;6.97;;;3.20;;
11315;SDS011;5713;50.774;0.256;2022-08-03T14:50:44;7.93;;;3.92;;
11315;SDS011;5713;50.774;0.256;2022-08-03T14:53:11;5.57;;;3.17;;
11315;SDS011;5713;50.774;0.256;2022-08-03T14:55:37;5.78;;;3.20;;
11315;SDS011;5713;50.774;0.256;2022-08-03T14:58:03;5.80;;;3.10;;
11315;SDS011;5713;50.774;0.256;2022-08-03T15:00:34;6.90;;;3.30;;
11315;SDS011;5713;50.774;0.256;2022-08-03T15:03:01;4.47;;;3.03;;
11315;SDS011;5713;50.774;0.256;2022-08-03T15:05:27;5.72;;;3.10;;
11315;SDS011;5713;50.774;0.256;2022-08-03T15:07:53;4.77;;;3.20;;
11315;SDS011;5713;50.774;0.256;2022-08-03T15:10:19;5.65;;;3.60;;
11315;SDS011;5713;50.774;0.256;2022-08-03T15:12:45;6.32;;;3.42;;
11315;SDS011;5713;50.774;0.256;2022-08-03T15:15:12;7.80;;;3.70;;
11315;SDS011;5713;50.774;0.256;2022-08-03T15:17:38;6.93;;;3.20;;
11315;SDS011;5713;50.774;0.256;2022-08-03T15:20:04;7.40;;;3.33;;
11315;SDS011;5713;50.774;0.256;2022-08-03T15:22:32;6.47;;;3.33;;
11315;SDS011;5713;50.774;0.256;2022-08-03T15:24:59;5.35;;;3.20;;
11315;SDS011;5713;50.774;0.256;2022-08-03T15:27:25;5.30;;;3.17;;
11315;SDS011;5713;50.774;0.256;2022-08-03T15:29:51;6.25;;;3.28;;
11315;SDS011;5713;50.774;0.256;2022-08-03T15:32:17;5.68;;;3.30;;
11315;SDS011;5713;50.774;0.256;2022-08-03T15:34:45;5.70;;;3.27;;